ADDS METAR Data INFO
IDs: Format: Raw Decoded Include TAF

Data at: 2220 UTC 24 Jun 2018

KMLS 242200Z AUTO 28011KT 10SM VCTS FEW037 24/16 A2998 RMK AO2 T02390161
KMLS 242153Z AUTO 28009KT 10SM CLR 24/16 A2998 RMK AO2 SLP138 T02390161
KMLS 242053Z AUTO 27008KT 10SM CLR 22/17 A2998 RMK AO2 LTG DSNT N-SE SLP141 60001 T02220167 58005
KMLS 242005Z AUTO 32010KT 10SM FEW026 SCT070 BKN100 21/17 A2999 RMK AO2 LTG DSNT SE T02110167
KMLS 241953Z AUTO 32011KT 10SM VCTS FEW026 SCT050 BKN090 21/17 A3000 RMK AO2 LTG DSNT NE AND SE SLP146 T02110167
KMLS 241938Z AUTO 29010KT 10SM VCTS FEW043 FEW080 SCT110 22/17 A2999 RMK AO2 T02220172
KMLS 241918Z AUTO 29011KT 10SM SCT080 BKN110 22/17 A3000 RMK AO2 T02170172
KMLS 241853Z AUTO 30010KT 10SM VCTS BKN090 21/18 A2999 RMK AO2 RAB19E37 SLP146 P0001 T02060178
KMLS 241753Z AUTO 32010KT 10SM FEW025 SCT042 BKN055 22/16 A3000 RMK AO2 SLP144 60000 T02170161 10222 20156 53004
KMLS 241653Z AUTO 32010G18KT 10SM FEW022 BKN040 21/16 A2999 RMK AO2 SLP144 T02060156
KMLS 241636Z AUTO 31011KT 10SM SCT024 OVC040 21/16 A2999 RMK AO2 T02110161
KMLS 241553Z AUTO 31009KT 10SM BKN026 BKN034 21/16 A2998 RMK AO2 SLP141 T02060156
KMLS 241550Z AUTO 33010KT 10SM BKN026 BKN034 21/16 A2998 RMK AO2
KMLS 241453Z AUTO 34011KT 10SM FEW022 19/14 A2997 RMK AO2 SLP137 60000 T01940144 53013
KMLS 241353Z AUTO 30009KT 10SM OVC095 17/14 A2996 RMK AO2 SLP133 T01720144
KMLS 241253Z AUTO 28006KT 10SM BKN095 OVC110 16/14 A2994 RMK AO2 RAB21E30 SLP126 P0000 T01560144
KMLS 241153Z AUTO 29007KT 10SM OVC100 16/14 A2993 RMK AO2 SLP125 70001 T01560144 10172 20144 53017
KMLS 241053Z AUTO 28005KT 10SM FEW120 14/14 A2991 RMK AO2 SLP119 T01440144
KMLS 240953Z AUTO 28006KT 10SM OVC110 15/15 A2989 RMK AO2 SLP108 T01500150
KMLS 240853Z AUTO 30007KT 10SM OVC100 14/14 A2988 RMK AO2 SLP105 T01440144 53009
KMLS 240753Z AUTO 30011KT 10SM SCT100 16/14 A2986 RMK AO2 SLP096 T01560139
KMLS 240653Z AUTO 26005KT 10SM OVC090 16/14 A2986 RMK AO2 SLP098 T01610144 402560144
KMLS 240553Z AUTO 30009KT 10SM SCT070 SCT095 17/14 A2985 RMK AO2 SLP094 T01720144 10228 20172 53007
KMLS 240453Z AUTO 26007KT 10SM SCT090 BKN120 18/16 A2984 RMK AO2 SLP088 T01780156
KMLS 240353Z AUTO 22007KT 10SM CLR 17/16 A2984 RMK AO2 SLP091 T01720161
KMLS 240253Z AUTO 13003KT 10SM FEW060 BKN120 19/16 A2983 RMK AO2 SLP087 T01940161 51018
KMLS 240153Z AUTO 05003KT 10SM SCT110 22/15 A2982 RMK AO2 SLP085 T02170150
KMLS 240053Z AUTO 35004KT 10SM CLR 23/16 A2980 RMK AO2 SLP076 T02280156
KMLS 232353Z AUTO 28005KT 10SM CLR 21/16 A2977 RMK AO2 SLP068 T02060161 10256 20200 50000
KMLS 232253Z AUTO 36012G23KT 10SM FEW046 BKN055 20/14 A2978 RMK AO2 TSB10E25 SLP074 T02000144
KMLS 232231Z AUTO 35011KT 10SM VCTS SCT046 BKN060 OVC070 22/15 A2978 RMK AO2 LTG DSNT S TSB10E25 T02170150
KMLS 232210Z AUTO 35012G18KT 10SM TS FEW046 SCT060 24/15 A2977 RMK AO2 TSB10 T02440150
KMLS 232153Z AUTO 31013G19KT 10SM FEW046 25/15 A2977 RMK AO2 LTG DSNT NW SLP065 T02500150
KMLS 232053Z AUTO 30015G21KT 10SM FEW039 24/16 A2977 RMK AO2 SLP067 T02440161 56004
KMLS 231953Z AUTO 28014KT 10SM CLR 23/16 A2977 RMK AO2 LTG DSNT NW-E SLP067 T02330156
KMLS 231853Z AUTO 29014KT 10SM CLR 22/16 A2978 RMK AO2 LTG DSNT N AND NE SLP069 T02220156
KMLS 231753Z AUTO 29010G19KT 10SM CLR 22/16 A2978 RMK AO2 SLP071 60001 T02170156 10233 20156 51002
KMLS 231653Z AUTO 30012KT 10SM FEW036 23/16 A2978 RMK AO2 SLP069 T02280156
KMLS 231553Z AUTO 29010KT 10SM FEW032 22/16 A2978 RMK AO2 SLP072 T02170161
KMLS 231453Z AUTO 28006KT 10SM FEW020 19/17 A2978 RMK AO2 SLP071 60001 T01940167 53008
KMLS 231353Z AUTO 00000KT 10SM FEW120 16/16 A2976 RMK AO2 SLP066 T01610156
KMLS 231253Z AUTO 22004KT 10SM BKN110 16/16 A2975 RMK AO2 RAE15 SLP061 P0001 T01560156
KMLS 231153Z AUTO 25005KT 10SM -RA OVC100 16/15 A2975 RMK AO2 RAB40 SLP060 P0000 60001 70128 T01560150 10167 20144 53003
KMLS 231053Z AUTO 28005KT 10SM SCT075 BKN120 16/15 A2974 RMK AO2 RAB20E40 SLP061 P0001 T01560150